createdAt,value
2022-09-10T00:01:23.595Z,14.40
2022-09-10T00:03:54.570Z,14.50
2022-09-10T00:06:26.085Z,14.40
2022-09-10T00:08:56.212Z,14.50
2022-09-10T00:11:24.760Z,14.50
2022-09-10T00:13:55.061Z,14.50
2022-09-10T00:16:23.128Z,14.50
2022-09-10T00:18:51.143Z,14.50
2022-09-10T00:21:20.895Z,14.40
2022-09-10T00:23:49.153Z,14.40
2022-09-10T00:26:21.622Z,14.40
2022-09-10T00:28:51.396Z,14.40
2022-09-10T00:31:22.308Z,14.50
2022-09-10T00:33:51.092Z,14.50
2022-09-10T00:36:21.584Z,14.40
2022-09-10T00:38:50.431Z,14.40
2022-09-10T00:41:19.700Z,14.40
2022-09-10T00:43:53.717Z,14.40
2022-09-10T00:46:36.538Z,14.40
2022-09-10T00:49:11.049Z,14.40
2022-09-10T00:51:40.462Z,14.30
2022-09-10T00:54:09.345Z,14.40
2022-09-10T00:56:38.473Z,14.40
2022-09-10T00:59:10.415Z,14.40
2022-09-10T01:01:41.124Z,14.40
2022-09-10T01:04:10.901Z,14.40
2022-09-10T01:06:40.310Z,14.40
2022-09-10T01:09:10.735Z,14.30
2022-09-10T01:12:04.520Z,14.30
2022-09-10T01:14:53.126Z,14.30
2022-09-10T01:17:32.289Z,14.30
2022-09-10T01:20:20.334Z,14.30
2022-09-10T01:23:06.301Z,14.30
2022-09-10T01:25:43.577Z,14.30
2022-09-10T01:28:18.825Z,14.40
2022-09-10T01:30:51.602Z,14.30
2022-09-10T01:33:26.577Z,14.20
2022-09-10T01:35:58.362Z,14.30
2022-09-10T01:38:31.797Z,14.30
2022-09-10T01:41:00.317Z,14.30
2022-09-10T01:43:29.825Z,14.40
2022-09-10T01:46:12.427Z,14.40
2022-09-10T01:48:55.929Z,14.30
2022-09-10T01:51:29.846Z,14.30
2022-09-10T01:54:17.941Z,14.20
2022-09-10T01:56:52.807Z,14.30
2022-09-10T01:59:30.076Z,14.20
2022-09-10T02:02:05.705Z,14.20
2022-09-10T02:04:35.341Z,14.20
2022-09-10T02:07:05.485Z,14.20
2022-09-10T02:09:34.017Z,14.20
2022-09-10T02:12:02.357Z,14.30
2022-09-10T02:14:31.662Z,14.30
2022-09-10T02:17:01.082Z,14.30
2022-09-10T02:19:29.303Z,14.30
2022-09-10T02:21:58.876Z,14.30
2022-09-10T02:24:27.222Z,14.20
2022-09-10T02:26:55.540Z,14.20
2022-09-10T02:29:24.100Z,14.10
2022-09-10T02:31:53.441Z,14.20
2022-09-10T02:34:21.725Z,14.20
2022-09-10T02:36:50.107Z,14.20
2022-09-10T02:39:18.399Z,14.20
2022-09-10T02:41:48.092Z,14.20
2022-09-10T02:44:16.172Z,14.20
2022-09-10T02:46:45.093Z,14.20
2022-09-10T02:49:14.997Z,14.20
2022-09-10T02:51:44.562Z,14.10
2022-09-10T02:54:12.593Z,14.10
2022-09-10T02:56:40.567Z,14.20
2022-09-10T02:59:08.544Z,14.20
2022-09-10T03:01:36.551Z,14.20
2022-09-10T03:04:04.827Z,14.20
2022-09-10T03:06:34.212Z,14.30
2022-09-10T03:09:02.494Z,14.30
2022-09-10T03:11:31.238Z,14.30
2022-09-10T03:13:59.317Z,14.30
2022-09-10T03:16:27.358Z,14.30
2022-09-10T03:18:55.323Z,14.30
2022-09-10T03:21:25.778Z,14.30
2022-09-10T03:23:56.917Z,14.30
2022-09-10T03:26:26.321Z,14.30
2022-09-10T03:28:54.503Z,14.30
2022-09-10T03:31:22.721Z,14.30
2022-09-10T03:33:51.051Z,14.30
2022-09-10T03:36:20.926Z,14.30
2022-09-10T03:38:48.947Z,14.30
2022-09-10T03:41:18.405Z,14.30
2022-09-10T03:43:46.341Z,14.30
2022-09-10T03:46:14.418Z,14.20
2022-09-10T03:48:43.516Z,14.20
2022-09-10T03:51:11.669Z,14.20
2022-09-10T03:53:39.685Z,14.20
2022-09-10T03:56:08.353Z,14.20
2022-09-10T03:58:37.921Z,14.20
2022-09-10T04:01:06.307Z,14.20
2022-09-10T04:03:34.513Z,14.10
2022-09-10T04:06:02.506Z,14.10
2022-09-10T04:08:30.631Z,14.20
2022-09-10T04:11:03.216Z,14.20
2022-09-10T04:13:31.870Z,14.20
2022-09-10T04:16:01.625Z,14.20
2022-09-10T04:18:30.091Z,14.20
2022-09-10T04:20:58.027Z,14.20
2022-09-10T04:23:26.088Z,14.20
2022-09-10T04:25:54.017Z,14.10
2022-09-10T04:28:21.924Z,14.10
2022-09-10T04:30:51.209Z,14.10
2022-09-10T04:33:20.516Z,14.00
2022-09-10T04:35:48.546Z,13.90
2022-09-10T04:38:16.521Z,13.90
2022-09-10T04:40:47.580Z,13.90
2022-09-10T04:43:15.837Z,13.90
2022-09-10T04:45:43.850Z,14.00
2022-09-10T04:48:11.882Z,14.00
2022-09-10T04:50:59.343Z,14.00
2022-09-10T04:53:31.280Z,14.00
2022-09-10T04:55:59.310Z,14.00
2022-09-10T04:58:27.611Z,14.00
2022-09-10T05:00:57.137Z,14.10
2022-09-10T05:03:25.466Z,14.10
2022-09-10T05:05:54.746Z,14.10
2022-09-10T05:08:22.766Z,14.20
2022-09-10T05:10:50.764Z,14.20
2022-09-10T05:13:19.258Z,14.20
2022-09-10T05:15:47.204Z,14.20
2022-09-10T05:18:16.591Z,14.30
2022-09-10T05:20:45.481Z,14.30
2022-09-10T05:23:14.789Z,14.30
2022-09-10T05:25:44.749Z,14.30
2022-09-10T05:28:12.980Z,14.30
2022-09-10T05:30:40.926Z,14.40
2022-09-10T05:33:08.923Z,14.50
2022-09-10T05:35:36.899Z,14.50
2022-09-10T05:38:04.861Z,14.60
2022-09-10T05:40:34.163Z,14.70
2022-09-10T05:43:02.092Z,14.70
2022-09-10T05:45:30.170Z,14.80
2022-09-10T05:47:58.205Z,14.80
2022-09-10T05:50:26.508Z,14.90
2022-09-10T05:52:54.847Z,14.90
2022-09-10T05:55:22.816Z,14.90
2022-09-10T05:57:52.149Z,15.00
2022-09-10T06:00:20.182Z,15.00
2022-09-10T06:02:48.267Z,15.00
2022-09-10T06:05:16.460Z,15.10
2022-09-10T06:07:44.716Z,15.10
2022-09-10T06:10:13.065Z,15.10
2022-09-10T06:12:41.249Z,15.10
2022-09-10T06:15:11.387Z,15.20
2022-09-10T06:17:40.189Z,15.20
2022-09-10T06:20:09.464Z,15.20
2022-09-10T06:22:37.453Z,15.30
2022-09-10T06:25:06.354Z,15.30
2022-09-10T06:27:34.390Z,15.40
2022-09-10T06:30:02.366Z,15.40
2022-09-10T06:32:33.115Z,15.40
2022-09-10T06:35:01.069Z,15.50
2022-09-10T06:37:29.002Z,15.60
2022-09-10T06:39:57.044Z,15.70
2022-09-10T06:42:25.157Z,15.80
2022-09-10T06:44:53.318Z,15.80
2022-09-10T06:50:10.928Z,16.00
2022-09-10T06:52:39.313Z,16.20
2022-09-10T06:55:08.105Z,16.20
2022-09-10T06:57:36.056Z,16.20
2022-09-10T07:00:04.442Z,16.30
2022-09-10T07:02:32.547Z,16.50
2022-09-10T07:05:00.544Z,16.60
2022-09-10T07:07:29.909Z,16.80
2022-09-10T07:09:57.846Z,16.90
2022-09-10T07:12:25.953Z,16.90
2022-09-10T07:14:54.454Z,17.00
2022-09-10T07:17:22.568Z,17.00
2022-09-10T07:19:50.509Z,17.10
2022-09-10T07:22:18.486Z,17.30
2022-09-10T07:24:50.229Z,17.50
2022-09-10T07:27:18.302Z,17.70
2022-09-10T07:29:46.254Z,17.60
2022-09-10T07:32:14.228Z,17.50
2022-09-10T07:34:42.258Z,17.50
2022-09-10T07:37:10.241Z,17.60
2022-09-10T07:39:38.209Z,17.60
2022-09-10T07:42:07.969Z,17.80
2022-09-10T07:44:35.965Z,18.10
2022-09-10T07:47:04.363Z,18.50
2022-09-10T07:49:32.635Z,18.40
2022-09-10T07:52:00.610Z,18.20
2022-09-10T07:54:28.579Z,18.20
2022-09-10T07:56:56.637Z,18.30
2022-09-10T07:59:26.071Z,18.30
2022-09-10T08:01:54.543Z,19.30
2022-09-10T08:04:23.512Z,19.90
2022-09-10T08:06:52.149Z,20.30
2022-09-10T08:09:20.366Z,20.60
2022-09-10T08:11:48.370Z,20.80
2022-09-10T08:14:16.464Z,20.50
2022-09-10T08:16:45.929Z,20.30
2022-09-10T08:19:14.955Z,20.70
2022-09-10T08:21:45.239Z,20.90
2022-09-10T08:24:13.263Z,20.30
2022-09-10T08:26:41.274Z,20.10
2022-09-10T08:29:09.306Z,20.20
2022-09-10T08:31:37.329Z,20.30
2022-09-10T08:34:08.273Z,20.60
2022-09-10T08:36:36.875Z,20.70
2022-09-10T08:39:08.201Z,20.70
2022-09-10T08:41:47.960Z,20.70
2022-09-10T08:44:28.705Z,20.40
2022-09-10T08:47:04.402Z,20.50
2022-09-10T08:49:39.912Z,20.40
2022-09-10T08:52:16.413Z,19.80
2022-09-10T08:54:53.101Z,19.50
2022-09-10T08:57:26.394Z,19.80
2022-09-10T08:59:56.683Z,19.50
2022-09-10T09:02:48.227Z,19.30
2022-09-10T09:05:20.389Z,19.70
2022-09-10T09:07:49.487Z,20.00
2022-09-10T09:10:30.172Z,20.80
2022-09-10T09:13:28.306Z,20.60
2022-09-10T09:16:07.024Z,20.60
2022-09-10T09:18:45.237Z,20.60
2022-09-10T09:21:17.916Z,20.00
2022-09-10T09:24:12.127Z,20.20
2022-09-10T09:26:45.985Z,20.60
2022-09-10T09:29:18.030Z,20.50
2022-09-10T09:31:50.988Z,20.80
2022-09-10T09:34:23.648Z,20.60
2022-09-10T09:36:55.908Z,20.60
2022-09-10T09:39:28.709Z,19.80
2022-09-10T09:42:06.754Z,19.70
2022-09-10T09:44:39.539Z,19.80
2022-09-10T09:47:08.955Z,20.00
2022-09-10T09:49:36.961Z,20.30
2022-09-10T09:52:18.446Z,20.50
2022-09-10T09:57:42.812Z,19.90
2022-09-10T10:00:36.055Z,20.20
2022-09-10T10:03:16.874Z,20.40
2022-09-10T10:05:45.077Z,19.80
2022-09-10T10:08:30.821Z,20.00
2022-09-10T10:10:59.502Z,20.30
2022-09-10T10:13:38.348Z,20.40
2022-09-10T10:16:18.231Z,19.50
2022-09-10T10:18:47.074Z,20.00
2022-09-10T10:21:18.097Z,20.00
2022-09-10T10:23:48.422Z,19.50
2022-09-10T10:26:30.388Z,19.40
2022-09-10T10:29:01.620Z,20.00
2022-09-10T10:31:40.174Z,20.20
2022-09-10T10:34:37.350Z,20.10
2022-09-10T10:37:10.462Z,20.00
2022-09-10T10:40:01.240Z,20.50
2022-09-10T10:42:33.113Z,20.70
2022-09-10T10:45:31.008Z,20.90
2022-09-10T10:48:05.013Z,21.30
2022-09-10T10:50:39.788Z,22.40
2022-09-10T10:53:22.337Z,23.10
2022-09-10T10:56:02.027Z,21.80
2022-09-10T10:58:59.596Z,21.20
2022-09-10T11:01:30.033Z,21.60
2022-09-10T11:04:13.483Z,22.20
2022-09-10T11:06:48.344Z,21.80
2022-09-10T11:09:24.146Z,22.50
2022-09-10T11:12:01.112Z,21.90
2022-09-10T11:14:36.265Z,21.20
2022-09-10T11:17:10.049Z,21.20
2022-09-10T11:19:43.097Z,21.20
2022-09-10T11:22:15.871Z,21.00
2022-09-10T11:24:50.036Z,20.70
2022-09-10T11:27:25.259Z,20.60
2022-09-10T11:29:58.161Z,21.60
2022-09-10T11:32:32.397Z,22.40
2022-09-10T11:35:08.541Z,21.80
2022-09-10T11:37:51.701Z,21.10
2022-09-10T11:40:26.137Z,21.00
2022-09-10T11:42:59.536Z,20.40
2022-09-10T11:45:36.220Z,20.30
2022-09-10T11:48:17.347Z,20.00
2022-09-10T11:50:51.532Z,20.10
2022-09-10T11:53:23.139Z,19.70
2022-09-10T11:56:10.952Z,19.50
2022-09-10T11:58:51.699Z,19.60
2022-09-10T12:01:32.605Z,19.90
2022-09-10T12:04:26.920Z,20.60
2022-09-10T12:07:02.590Z,21.10
2022-09-10T12:09:38.935Z,21.40
2022-09-10T12:12:14.850Z,21.70
2022-09-10T12:14:44.178Z,21.50
2022-09-10T12:17:17.692Z,21.00
2022-09-10T12:19:49.085Z,20.80
2022-09-10T12:22:25.491Z,20.70
2022-09-10T12:24:56.541Z,20.70
2022-09-10T12:27:45.212Z,20.70
2022-09-10T12:30:58.924Z,20.50
2022-09-10T12:34:15.891Z,20.30
2022-09-10T12:37:24.888Z,20.40
2022-09-10T12:40:31.994Z,21.00
2022-09-10T12:43:01.682Z,21.40
2022-09-10T12:46:01.870Z,21.80
2022-09-10T12:48:30.534Z,22.30
2022-09-10T12:51:00.870Z,22.10
2022-09-10T12:53:53.774Z,21.70
2022-09-10T12:56:52.753Z,21.20
2022-09-10T12:59:53.476Z,20.70
2022-09-10T13:02:29.030Z,20.10
2022-09-10T13:05:00.555Z,20.40
2022-09-10T13:07:36.898Z,20.40
2022-09-10T13:10:09.124Z,20.60
2022-09-10T13:12:41.777Z,21.30
2022-09-10T13:15:19.132Z,21.10
2022-09-10T13:18:24.869Z,21.60
2022-09-10T13:20:52.954Z,21.50
2022-09-10T13:23:24.178Z,21.60
2022-09-10T13:25:53.176Z,21.30
2022-09-10T13:29:00.654Z,21.30
2022-09-10T13:31:31.472Z,21.30
2022-09-10T13:34:27.284Z,20.60
2022-09-10T13:37:09.174Z,20.60
2022-09-10T13:40:03.581Z,21.40
2022-09-10T13:42:51.890Z,21.80
2022-09-10T13:45:27.114Z,21.50
2022-09-10T13:48:02.042Z,21.00
2022-09-10T13:50:36.214Z,20.60
2022-09-10T13:53:10.656Z,21.20
2022-09-10T13:55:47.266Z,21.30
2022-09-10T13:58:18.009Z,21.10
2022-09-10T14:00:53.451Z,21.10
2022-09-10T14:03:23.945Z,21.00
2022-09-10T14:05:54.193Z,20.70
2022-09-10T14:08:26.943Z,20.30
2022-09-10T14:10:59.805Z,19.80
2022-09-10T14:13:33.313Z,18.60
2022-09-10T14:16:04.506Z,17.90
2022-09-10T14:18:40.847Z,17.50
2022-09-10T14:21:08.991Z,17.30
2022-09-10T14:23:40.176Z,17.40
2022-09-10T14:26:23.365Z,17.50
2022-09-10T14:28:54.102Z,17.70
2022-09-10T14:31:31.870Z,17.70
2022-09-10T14:34:20.136Z,17.90
2022-09-10T14:36:48.097Z,18.10
2022-09-10T14:39:18.559Z,18.10
2022-09-10T14:41:48.943Z,18.20
2022-09-10T14:44:35.085Z,18.30
2022-09-10T14:47:15.229Z,18.50
2022-09-10T14:49:46.962Z,18.70
2022-09-10T14:52:15.574Z,19.30
2022-09-10T14:54:43.701Z,19.60
2022-09-10T14:57:15.672Z,20.10
2022-09-10T14:59:46.207Z,20.60
2022-09-10T15:02:17.908Z,20.40
2022-09-10T15:04:45.977Z,20.50
2022-09-10T15:07:14.147Z,20.50
2022-09-10T15:09:42.312Z,20.60
2022-09-10T15:12:16.933Z,20.70
2022-09-10T15:14:45.009Z,20.70
2022-09-10T15:17:14.827Z,20.50
2022-09-10T15:19:42.777Z,20.40
2022-09-10T15:22:20.775Z,20.30
2022-09-10T15:25:08.650Z,20.20
2022-09-10T15:27:39.043Z,20.00
2022-09-10T15:30:14.306Z,19.70
2022-09-10T15:32:42.275Z,19.40
2022-09-10T15:35:10.635Z,18.90
2022-09-10T15:37:38.767Z,18.30
2022-09-10T15:40:07.957Z,17.80
2022-09-10T15:42:36.031Z,17.40
2022-09-10T15:45:05.825Z,17.20
2022-09-10T15:47:34.030Z,17.00
2022-09-10T15:50:02.108Z,16.60
2022-09-10T15:52:30.131Z,16.30
2022-09-10T15:54:58.062Z,16.10
2022-09-10T15:57:26.159Z,16.00
2022-09-10T15:59:54.415Z,16.00
2022-09-10T16:02:24.094Z,16.10
2022-09-10T16:04:53.069Z,16.20
2022-09-10T16:07:21.280Z,16.40
2022-09-10T16:09:49.406Z,16.50
2022-09-10T16:12:17.871Z,16.60
2022-09-10T16:14:46.650Z,16.80
2022-09-10T16:17:17.303Z,16.80
2022-09-10T16:19:46.754Z,16.80
2022-09-10T16:22:18.680Z,16.80
2022-09-10T16:24:48.737Z,17.00
2022-09-10T16:27:17.531Z,17.30
2022-09-10T16:29:46.999Z,17.40
2022-09-10T16:32:15.059Z,17.30
2022-09-10T16:34:43.069Z,17.30
2022-09-10T16:37:12.473Z,17.30
2022-09-10T16:39:40.690Z,17.50
2022-09-10T16:42:09.696Z,18.10
2022-09-10T16:44:37.713Z,18.30
2022-09-10T16:47:05.910Z,18.10
2022-09-10T16:49:33.900Z,17.70
2022-09-10T16:52:01.930Z,17.20
2022-09-10T16:54:31.835Z,17.00
2022-09-10T16:57:00.129Z,16.60
2022-09-10T16:59:28.266Z,16.50
2022-09-10T17:01:59.498Z,16.40
2022-09-10T17:04:29.214Z,16.40
2022-09-10T17:06:58.095Z,16.30
2022-09-10T17:09:26.524Z,16.30
2022-09-10T17:11:55.866Z,16.20
2022-09-10T17:14:24.457Z,16.20
2022-09-10T17:16:53.152Z,16.20
2022-09-10T17:19:23.575Z,16.20
2022-09-10T17:21:55.074Z,16.20
2022-09-10T17:24:24.736Z,16.10
2022-09-10T17:26:55.122Z,16.10
2022-09-10T17:29:26.452Z,16.10
2022-09-10T17:31:55.265Z,16.20
2022-09-10T17:34:24.464Z,16.30
2022-09-10T17:36:53.249Z,16.30
2022-09-10T17:39:21.249Z,16.40
2022-09-10T17:41:49.279Z,16.30
2022-09-10T17:44:17.704Z,16.30
2022-09-10T17:46:47.072Z,16.30
2022-09-10T17:49:15.799Z,16.40
2022-09-10T17:51:43.920Z,16.30
2022-09-10T17:54:13.368Z,16.30
2022-09-10T17:56:41.886Z,16.30
2022-09-10T17:59:14.144Z,16.30
2022-09-10T18:01:42.991Z,16.30
2022-09-10T18:04:14.230Z,16.30
2022-09-10T18:06:42.247Z,16.30
2022-09-10T18:09:11.237Z,16.30
2022-09-10T18:11:41.086Z,16.20
2022-09-10T18:14:09.848Z,16.20
2022-09-10T18:16:38.197Z,16.30
2022-09-10T18:19:13.873Z,16.20
2022-09-10T18:21:45.012Z,16.20
2022-09-10T18:24:15.632Z,16.30
2022-09-10T18:26:46.319Z,16.30
2022-09-10T18:29:15.934Z,16.30
2022-09-10T18:31:47.051Z,16.20
2022-09-10T18:34:22.143Z,16.30
2022-09-10T18:36:54.974Z,16.30
2022-09-10T18:39:24.279Z,16.20
2022-09-10T18:41:52.982Z,16.20
2022-09-10T18:44:22.939Z,16.10
2022-09-10T18:46:52.645Z,16.20
2022-09-10T18:49:22.298Z,16.20
2022-09-10T18:51:52.120Z,16.20
2022-09-10T18:54:20.971Z,16.20
2022-09-10T18:56:49.900Z,16.20
2022-09-10T18:59:20.617Z,16.20
2022-09-10T19:01:50.056Z,16.20
2022-09-10T19:04:20.028Z,16.20
2022-09-10T19:06:49.205Z,16.20
2022-09-10T19:09:20.927Z,16.10
2022-09-10T19:11:51.081Z,16.10
2022-09-10T19:14:21.588Z,16.20
2022-09-10T19:16:51.455Z,16.10
2022-09-10T19:19:22.136Z,16.10
2022-09-10T19:21:52.101Z,16.10
2022-09-10T19:24:37.595Z,16.10
2022-09-10T19:27:06.686Z,16.10
2022-09-10T19:29:34.782Z,16.20
2022-09-10T19:32:03.280Z,16.20
2022-09-10T19:34:31.299Z,16.10
2022-09-10T19:36:59.316Z,16.10
2022-09-10T19:39:28.709Z,16.20
2022-09-10T19:41:56.962Z,16.20
2022-09-10T19:44:24.933Z,16.20
2022-09-10T19:46:52.908Z,16.20
2022-09-10T19:49:22.226Z,16.20
2022-09-10T19:51:50.341Z,16.20
2022-09-10T19:54:18.394Z,16.20
2022-09-10T19:56:47.765Z,16.20
2022-09-10T19:59:16.162Z,16.20
2022-09-10T20:01:45.945Z,16.20
2022-09-10T20:04:15.008Z,16.20
2022-09-10T20:06:45.801Z,16.10
2022-09-10T20:09:13.948Z,16.10
2022-09-10T20:11:41.963Z,16.10
2022-09-10T20:14:13.853Z,16.10
2022-09-10T20:16:44.034Z,16.10
2022-09-10T20:19:13.175Z,16.10
2022-09-10T20:21:42.185Z,16.10
2022-09-10T20:24:11.232Z,16.10
2022-09-10T20:26:41.139Z,16.10
2022-09-10T20:29:13.135Z,16.10
2022-09-10T20:31:42.470Z,16.10
2022-09-10T20:34:13.838Z,16.10
2022-09-10T20:36:42.990Z,16.00
2022-09-10T20:39:13.623Z,16.00
2022-09-10T20:41:41.700Z,16.00
2022-09-10T20:44:12.803Z,16.00
2022-09-10T20:46:41.913Z,16.00
2022-09-10T20:49:11.793Z,16.00
2022-09-10T20:51:41.216Z,16.00
2022-09-10T20:54:11.973Z,15.90
2022-09-10T20:56:40.140Z,15.90
2022-09-10T20:59:08.266Z,15.90
2022-09-10T21:01:39.507Z,15.90
2022-09-10T21:04:07.519Z,15.90
2022-09-10T21:06:36.513Z,15.90
2022-09-10T21:09:06.048Z,15.90
2022-09-10T21:11:35.428Z,15.90
2022-09-10T21:14:06.045Z,15.80
2022-09-10T21:16:35.571Z,15.80
2022-09-10T21:19:08.436Z,15.80
2022-09-10T21:21:37.082Z,15.80
2022-09-10T21:24:07.172Z,15.80
2022-09-10T21:26:36.727Z,15.80
2022-09-10T21:29:07.249Z,15.70
2022-09-10T21:31:36.440Z,15.70
2022-09-10T21:34:06.379Z,15.70
2022-09-10T21:36:35.876Z,15.70
2022-09-10T21:39:06.666Z,15.60
2022-09-10T21:41:36.558Z,15.60
2022-09-10T21:44:06.062Z,15.60
2022-09-10T21:46:34.338Z,15.60
2022-09-10T21:49:03.391Z,15.60
2022-09-10T21:51:33.061Z,15.60
2022-09-10T21:54:01.907Z,15.60
2022-09-10T21:56:30.284Z,15.60
2022-09-10T21:59:00.445Z,15.60
2022-09-10T22:01:30.288Z,15.70
2022-09-10T22:04:00.135Z,15.70
2022-09-10T22:06:29.821Z,15.60
2022-09-10T22:09:01.050Z,15.50
2022-09-10T22:11:32.034Z,15.40
2022-09-10T22:14:02.114Z,15.40
2022-09-10T22:16:32.050Z,15.30
2022-09-10T22:19:02.170Z,15.30
2022-09-10T22:21:31.036Z,15.30
2022-09-10T22:24:00.764Z,15.30
2022-09-10T22:26:29.397Z,15.20
2022-09-10T22:28:59.881Z,15.20
2022-09-10T22:31:29.606Z,15.20
2022-09-10T22:33:59.121Z,15.20
2022-09-10T22:36:30.934Z,15.30
2022-09-10T22:39:02.167Z,15.30
2022-09-10T22:41:33.109Z,15.30
2022-09-10T22:44:02.432Z,15.20
2022-09-10T22:46:31.336Z,15.10
2022-09-10T22:48:59.512Z,15.00
2022-09-10T22:51:29.624Z,14.90
2022-09-10T22:54:00.963Z,14.90
2022-09-10T22:56:29.756Z,14.90
2022-09-10T22:58:59.498Z,14.90
2022-09-10T23:01:30.978Z,14.90
2022-09-10T23:04:00.852Z,14.90
2022-09-10T23:06:30.773Z,14.80
2022-09-10T23:09:07.139Z,14.90
2022-09-10T23:11:37.192Z,15.00
2022-09-10T23:14:09.094Z,15.00
2022-09-10T23:16:39.123Z,15.00
2022-09-10T23:19:10.073Z,14.90
2022-09-10T23:21:41.580Z,15.00
2022-09-10T23:24:14.091Z,15.00
2022-09-10T23:26:42.995Z,15.00
2022-09-10T23:29:11.045Z,15.00
2022-09-10T23:31:40.739Z,15.00
2022-09-10T23:34:11.387Z,15.00
2022-09-10T23:36:41.243Z,15.00
2022-09-10T23:39:13.687Z,15.00
2022-09-10T23:41:42.467Z,15.00
2022-09-10T23:44:10.938Z,15.10
2022-09-10T23:46:39.292Z,15.10
2022-09-10T23:49:07.601Z,15.10
2022-09-10T23:51:35.785Z,15.10
2022-09-10T23:54:04.287Z,15.10
2022-09-10T23:56:33.686Z,15.20
2022-09-10T23:59:03.510Z,15.20
